createdAt,value
2018-02-22T00:01:05.369Z,13.10
2018-02-22T00:03:33.777Z,13.40
2018-02-22T00:06:02.127Z,10.80
2018-02-22T00:08:30.447Z,11.70
2018-02-22T00:10:58.791Z,11.27
2018-02-22T00:13:27.143Z,11.67
2018-02-22T00:15:55.546Z,11.93
2018-02-22T00:18:23.895Z,11.03
2018-02-22T00:20:52.258Z,11.20
2018-02-22T00:23:20.607Z,14.40
2018-02-22T00:25:48.991Z,11.17
2018-02-22T00:28:17.341Z,10.70
2018-02-22T00:30:45.731Z,12.23
2018-02-22T00:33:14.069Z,11.43
2018-02-22T00:35:42.415Z,10.77
2018-02-22T00:38:10.779Z,9.97
2018-02-22T00:40:39.117Z,10.87
2018-02-22T00:43:07.518Z,9.73
2018-02-22T00:45:35.886Z,16.50
2018-02-22T00:48:12.136Z,11.23
2018-02-22T00:50:40.531Z,10.60
2018-02-22T00:53:08.911Z,11.07
2018-02-22T00:55:37.302Z,10.20
2018-02-22T00:58:05.618Z,9.90
2018-02-22T01:00:33.975Z,11.53
2018-02-22T01:03:02.311Z,14.23
2018-02-22T01:05:32.358Z,10.17
2018-02-22T01:11:03.834Z,11.20
2018-02-22T01:13:32.383Z,10.80
2018-02-22T01:16:00.730Z,12.47
2018-02-22T01:18:29.079Z,49.33
2018-02-22T01:20:57.437Z,71.70
2018-02-22T01:23:26.547Z,24.17
2018-02-22T01:25:54.997Z,24.30
2018-02-22T01:28:23.314Z,12.33
2018-02-22T01:30:51.666Z,20.00
2018-02-22T01:33:20.066Z,22.73
2018-02-22T01:35:48.457Z,14.47
2018-02-22T01:38:16.836Z,14.80
2018-02-22T01:40:45.201Z,18.33
2018-02-22T01:43:13.592Z,14.53
2018-02-22T01:45:41.981Z,20.27
2018-02-22T01:48:10.329Z,11.70
2018-02-22T01:50:39.545Z,12.70
2018-02-22T01:53:08.011Z,10.07
2018-02-22T01:55:37.117Z,15.10
2018-02-22T01:58:06.163Z,14.10
2018-02-22T02:00:34.929Z,12.47
2018-02-22T02:03:04.275Z,10.83
2018-02-22T02:05:34.287Z,11.07
2018-02-22T02:08:02.694Z,11.93
2018-02-22T02:10:31.811Z,11.57
2018-02-22T02:13:00.201Z,10.47
2018-02-22T02:15:28.570Z,10.57
2018-02-22T02:17:57.034Z,10.23
2018-02-22T02:20:25.401Z,11.33
2018-02-22T02:22:53.720Z,9.40
2018-02-22T02:25:22.598Z,11.57
2018-02-22T02:27:57.515Z,9.63
2018-02-22T02:30:25.869Z,18.37
2018-02-22T02:32:54.191Z,48.10
2018-02-22T02:35:22.559Z,26.97
2018-02-22T02:37:50.913Z,25.30
2018-02-22T02:40:19.298Z,17.60
2018-02-22T02:42:47.604Z,20.80
2018-02-22T02:45:16.704Z,16.33
2018-02-22T02:47:45.427Z,11.10
2018-02-22T02:50:14.780Z,11.27
2018-02-22T02:52:43.171Z,18.40
2018-02-22T02:55:11.563Z,10.80
2018-02-22T02:57:40.667Z,16.30
2018-02-22T03:00:09.008Z,12.37
2018-02-22T03:02:38.148Z,12.00
2018-02-22T03:05:06.476Z,9.17
2018-02-22T03:07:35.331Z,9.40
2018-02-22T03:10:03.638Z,12.87
2018-02-22T03:12:31.982Z,17.20
2018-02-22T03:15:00.318Z,12.47
2018-02-22T03:17:29.608Z,13.70
2018-02-22T03:19:58.266Z,15.00
2018-02-22T03:22:39.520Z,11.67
2018-02-22T03:25:08.344Z,12.43
2018-02-22T03:27:37.616Z,10.50
2018-02-22T03:30:06.897Z,9.40
2018-02-22T03:32:36.113Z,12.57
2018-02-22T03:35:05.292Z,9.47
2018-02-22T03:37:34.835Z,11.07
2018-02-22T03:40:03.223Z,10.97
2018-02-22T03:42:31.992Z,9.53
2018-02-22T03:45:00.338Z,12.70
2018-02-22T03:47:29.747Z,16.87
2018-02-22T03:49:58.842Z,14.13
2018-02-22T03:52:27.273Z,14.67
2018-02-22T03:54:55.611Z,10.70
2018-02-22T03:57:24.814Z,12.83
2018-02-22T03:59:54.840Z,10.17
2018-02-22T04:02:24.125Z,11.37
2018-02-22T04:04:52.475Z,9.40
2018-02-22T04:07:20.832Z,12.23
2018-02-22T04:09:49.510Z,12.13
2018-02-22T04:12:17.871Z,10.60
2018-02-22T04:14:46.210Z,14.43
2018-02-22T04:17:14.570Z,15.80
2018-02-22T04:19:42.902Z,13.20
2018-02-22T04:22:11.244Z,60.23
2018-02-22T04:24:39.574Z,38.87
2018-02-22T04:27:08.013Z,30.57
2018-02-22T04:29:36.363Z,23.40
2018-02-22T04:32:04.942Z,14.90
2018-02-22T04:34:47.035Z,17.37
2018-02-22T04:37:15.374Z,25.23
2018-02-22T04:39:44.471Z,12.77
2018-02-22T04:42:13.597Z,12.30
2018-02-22T04:44:42.160Z,12.03
2018-02-22T04:47:11.261Z,10.90
2018-02-22T04:49:40.354Z,12.67
2018-02-22T04:52:09.468Z,11.57
2018-02-22T04:54:37.830Z,9.90
2018-02-22T04:57:06.947Z,10.07
2018-02-22T04:59:35.279Z,17.47
2018-02-22T05:02:04.031Z,10.80
2018-02-22T05:04:33.171Z,8.97
2018-02-22T05:07:03.707Z,9.93
2018-02-22T05:09:32.084Z,17.93
2018-02-22T05:12:00.450Z,18.07
2018-02-22T05:14:28.831Z,9.63
2018-02-22T05:16:57.194Z,13.30
2018-02-22T05:19:25.554Z,11.50
2018-02-22T05:21:54.148Z,10.33
2018-02-22T05:24:22.503Z,10.80
2018-02-22T05:26:51.652Z,8.40
2018-02-22T05:29:20.250Z,9.53
2018-02-22T05:31:48.581Z,25.43
2018-02-22T05:34:17.022Z,17.37
2018-02-22T05:36:45.283Z,16.03
2018-02-22T05:39:15.691Z,17.60
2018-02-22T05:41:44.048Z,13.47
2018-02-22T05:44:12.394Z,12.23
2018-02-22T05:46:42.072Z,24.00
2018-02-22T05:49:10.430Z,16.20
2018-02-22T05:51:42.426Z,14.93
2018-02-22T05:54:10.766Z,10.53
2018-02-22T05:56:39.082Z,11.83
2018-02-22T05:59:07.423Z,12.33
2018-02-22T06:01:35.749Z,12.00
2018-02-22T06:04:24.446Z,8.87
2018-02-22T06:06:52.811Z,11.93
2018-02-22T06:09:21.919Z,8.63
2018-02-22T06:11:50.238Z,9.53
2018-02-22T06:14:18.626Z,11.47
2018-02-22T06:16:46.940Z,9.00
2018-02-22T06:19:16.030Z,10.00
2018-02-22T06:21:45.115Z,10.57
2018-02-22T06:24:13.446Z,9.53
2018-02-22T06:26:51.479Z,9.77
2018-02-22T06:29:19.818Z,8.27
2018-02-22T06:31:48.122Z,9.13
2018-02-22T06:34:16.758Z,8.57
2018-02-22T06:36:45.071Z,9.53
2018-02-22T06:39:13.405Z,9.20
2018-02-22T06:41:41.702Z,9.50
2018-02-22T06:44:10.819Z,21.17
2018-02-22T06:46:39.143Z,15.13
2018-02-22T06:49:20.414Z,21.93
2018-02-22T06:51:48.727Z,16.53
2018-02-22T06:54:17.066Z,23.67
2018-02-22T06:56:45.398Z,23.37
2018-02-22T06:59:14.505Z,14.17
2018-02-22T07:04:37.390Z,9.20
2018-02-22T07:07:05.951Z,13.50
2018-02-22T07:09:35.055Z,10.40
2018-02-22T07:12:04.138Z,23.27
2018-02-22T07:14:33.238Z,12.37
2018-02-22T07:17:01.571Z,11.03
2018-02-22T07:19:29.907Z,9.47
2018-02-22T07:21:58.513Z,8.47
2018-02-22T07:24:27.383Z,9.60
2018-02-22T07:26:56.612Z,9.30
2018-02-22T07:29:24.959Z,11.80
2018-02-22T07:31:54.043Z,11.17
2018-02-22T07:34:22.390Z,10.47
2018-02-22T07:36:50.702Z,9.70
2018-02-22T07:39:19.798Z,9.10
2018-02-22T07:41:48.125Z,8.60
2018-02-22T07:44:16.515Z,8.00
2018-02-22T07:46:44.834Z,8.50
2018-02-22T07:49:13.165Z,9.40
2018-02-22T07:51:41.715Z,9.63
2018-02-22T07:54:10.810Z,9.13
2018-02-22T07:56:39.899Z,8.57
2018-02-22T07:59:08.995Z,7.93
2018-02-22T08:01:37.352Z,13.37
2018-02-22T08:04:06.151Z,10.37
2018-02-22T08:06:34.921Z,10.53
2018-02-22T08:09:03.259Z,8.20
2018-02-22T08:11:31.590Z,11.47
2018-02-22T08:13:59.950Z,8.67
2018-02-22T08:16:29.588Z,8.93
2018-02-22T08:18:57.999Z,13.57
2018-02-22T08:21:26.326Z,9.67
2018-02-22T08:23:54.683Z,9.70
2018-02-22T08:26:23.011Z,8.47
2018-02-22T08:28:51.379Z,9.00
2018-02-22T08:31:19.692Z,8.97
2018-02-22T08:33:48.815Z,12.13
2018-02-22T08:36:17.234Z,10.63
2018-02-22T08:38:45.953Z,10.10
2018-02-22T08:41:15.090Z,8.33
2018-02-22T08:43:43.407Z,11.47
2018-02-22T08:46:11.747Z,13.07
2018-02-22T08:48:40.123Z,16.13
2018-02-22T08:51:08.739Z,9.00
2018-02-22T08:53:37.231Z,9.90
2018-02-22T08:56:05.573Z,16.40
2018-02-22T08:58:33.951Z,9.77
2018-02-22T09:01:03.459Z,10.00
2018-02-22T09:03:31.949Z,13.07
2018-02-22T09:06:01.135Z,8.67
2018-02-22T09:08:29.608Z,10.00
2018-02-22T09:10:58.443Z,9.90
2018-02-22T09:13:26.852Z,8.67
2018-02-22T09:15:56.036Z,10.77
2018-02-22T09:18:24.444Z,8.80
2018-02-22T09:20:53.065Z,9.40
2018-02-22T09:23:21.848Z,8.93
2018-02-22T09:25:51.200Z,10.07
2018-02-22T09:28:21.368Z,10.73
2018-02-22T09:30:49.724Z,8.53
2018-02-22T09:33:35.993Z,8.27
2018-02-22T09:36:04.369Z,10.43
2018-02-22T09:38:34.412Z,8.37
2018-02-22T09:41:02.757Z,8.83
2018-02-22T09:43:32.384Z,10.63
2018-02-22T09:46:01.587Z,7.83
2018-02-22T09:48:30.163Z,8.20
2018-02-22T09:50:58.506Z,8.40
2018-02-22T09:53:28.043Z,8.97
2018-02-22T09:55:56.721Z,8.73
2018-02-22T09:58:26.204Z,9.83
2018-02-22T10:01:00.201Z,10.10
2018-02-22T10:04:17.868Z,13.63
2018-02-22T10:06:47.383Z,12.73
2018-02-22T10:09:15.726Z,16.33
2018-02-22T10:11:44.070Z,9.17
2018-02-22T10:14:12.807Z,10.63
2018-02-22T10:16:41.146Z,11.47
2018-02-22T10:19:09.470Z,11.10
2018-02-22T10:21:37.824Z,9.00
2018-02-22T10:24:07.731Z,10.47
2018-02-22T10:26:36.095Z,10.13
2018-02-22T10:29:04.404Z,8.67
2018-02-22T10:31:32.744Z,10.80
2018-02-22T10:34:01.067Z,11.50
2018-02-22T10:36:29.427Z,10.93
2018-02-22T10:38:57.743Z,8.93
2018-02-22T10:41:26.089Z,9.30
2018-02-22T10:43:54.403Z,9.40
2018-02-22T10:46:23.086Z,19.97
2018-02-22T10:48:51.406Z,14.67
2018-02-22T10:51:19.747Z,18.30
2018-02-22T10:53:48.063Z,14.97
2018-02-22T10:56:20.123Z,18.13
2018-02-22T10:58:48.446Z,15.13
2018-02-22T11:01:25.547Z,16.73
2018-02-22T11:03:55.703Z,19.57
2018-02-22T11:06:30.357Z,19.43
2018-02-22T11:08:58.682Z,15.63
2018-02-22T11:11:27.571Z,14.30
2018-02-22T11:13:56.006Z,12.87
2018-02-22T11:16:24.368Z,16.90
2018-02-22T11:18:53.144Z,13.93
2018-02-22T11:21:21.927Z,16.23
2018-02-22T11:23:52.012Z,10.90
2018-02-22T11:26:20.599Z,14.63
2018-02-22T11:28:54.824Z,15.27
2018-02-22T11:31:24.404Z,11.43
2018-02-22T11:33:53.407Z,12.10
2018-02-22T11:36:22.702Z,11.57
2018-02-22T11:41:26.208Z,14.43
2018-02-22T11:43:55.304Z,11.47
2018-02-22T11:46:24.647Z,11.40
2018-02-22T11:48:53.027Z,11.47
2018-02-22T11:51:24.831Z,12.17
2018-02-22T11:53:54.008Z,10.73
2018-02-22T11:56:22.359Z,12.80
2018-02-22T11:58:50.678Z,10.00
2018-02-22T12:01:19.919Z,10.80
2018-02-22T12:03:58.287Z,14.83
2018-02-22T12:06:28.030Z,9.27
2018-02-22T12:08:56.370Z,11.07
2018-02-22T12:11:24.855Z,10.10
2018-02-22T12:13:54.918Z,10.10
2018-02-22T12:16:23.265Z,8.27
2018-02-22T12:18:52.283Z,12.20
2018-02-22T12:21:21.490Z,8.37
2018-02-22T12:23:49.811Z,9.30
2018-02-22T12:26:19.399Z,13.50
2018-02-22T12:28:48.956Z,6.97
2018-02-22T12:31:17.517Z,10.20
2018-02-22T12:33:46.222Z,9.50
2018-02-22T12:36:15.615Z,10.13
2018-02-22T12:38:47.146Z,10.97
2018-02-22T12:41:15.576Z,8.13
2018-02-22T12:43:44.594Z,9.60
2018-02-22T12:46:12.906Z,7.87
2018-02-22T12:48:42.917Z,7.87
2018-02-22T12:51:12.105Z,8.77
2018-02-22T12:53:40.450Z,11.13
2018-02-22T12:56:09.050Z,8.97
2018-02-22T12:58:37.443Z,9.33
2018-02-22T13:01:06.064Z,9.30
2018-02-22T13:03:35.448Z,7.20
2018-02-22T13:06:04.851Z,9.27
2018-02-22T13:08:33.196Z,6.87
2018-02-22T13:11:02.395Z,8.10
2018-02-22T13:13:30.794Z,7.17
2018-02-22T13:15:59.123Z,6.37
2018-02-22T13:18:27.464Z,7.83
2018-02-22T13:20:56.368Z,6.47
2018-02-22T13:23:25.474Z,9.53
2018-02-22T13:25:54.416Z,6.47
2018-02-22T13:28:23.719Z,7.57
2018-02-22T13:30:53.054Z,9.53
2018-02-22T13:33:33.232Z,9.90
2018-02-22T13:36:01.543Z,6.70
2018-02-22T13:38:41.749Z,8.13
2018-02-22T13:41:10.063Z,7.13
2018-02-22T13:43:39.459Z,5.70
2018-02-22T13:46:07.844Z,6.53
2018-02-22T13:48:48.082Z,6.73
2018-02-22T13:51:16.400Z,7.23
2018-02-22T13:53:48.276Z,6.70
2018-02-22T13:59:22.102Z,5.97
2018-02-22T14:02:02.285Z,8.40
2018-02-22T14:04:30.675Z,5.90
2018-02-22T14:06:59.154Z,7.60
2018-02-22T14:09:27.932Z,5.80
2018-02-22T14:11:56.280Z,5.67
2018-02-22T14:14:24.655Z,5.60
2018-02-22T14:16:52.966Z,7.20
2018-02-22T14:19:21.304Z,7.30
2018-02-22T14:21:50.969Z,8.33
2018-02-22T14:24:19.747Z,7.03
2018-02-22T14:26:48.069Z,6.00
2018-02-22T14:29:17.501Z,5.97
2018-02-22T14:31:45.830Z,5.50
2018-02-22T14:34:15.862Z,6.00
2018-02-22T14:36:44.179Z,8.10
2018-02-22T14:39:12.759Z,10.07
2018-02-22T14:41:41.079Z,10.83
2018-02-22T14:44:10.319Z,4.67
2018-02-22T14:46:38.630Z,7.77
2018-02-22T14:49:07.299Z,5.17
2018-02-22T14:51:48.466Z,8.13
2018-02-22T14:54:17.250Z,6.60
2018-02-22T14:56:45.570Z,6.13
2018-02-22T14:59:13.926Z,12.47
2018-02-22T15:01:42.295Z,10.67
2018-02-22T15:04:12.227Z,4.93
2018-02-22T15:06:40.591Z,5.60
2018-02-22T15:09:08.936Z,12.07
2018-02-22T15:11:37.462Z,4.93
2018-02-22T15:14:06.146Z,6.67
2018-02-22T15:16:41.842Z,4.90
2018-02-22T15:19:10.254Z,5.23
2018-02-22T15:21:39.353Z,5.03
2018-02-22T15:24:07.694Z,9.73
2018-02-22T15:26:36.333Z,5.77
2018-02-22T15:29:05.630Z,6.63
2018-02-22T15:31:33.991Z,4.30
2018-02-22T15:34:03.095Z,4.57
2018-02-22T15:36:31.417Z,7.13
2018-02-22T15:39:00.574Z,5.33
2018-02-22T15:41:29.653Z,5.33
2018-02-22T15:43:58.044Z,4.97
2018-02-22T15:46:27.378Z,4.63
2018-02-22T15:48:56.086Z,7.23
2018-02-22T15:51:25.015Z,4.80
2018-02-22T15:53:53.746Z,5.10
2018-02-22T15:56:22.064Z,4.53
2018-02-22T15:58:50.710Z,4.80
2018-02-22T16:01:19.044Z,4.17
2018-02-22T16:03:47.379Z,4.67
2018-02-22T16:06:15.752Z,4.30
2018-02-22T16:08:44.087Z,3.70
2018-02-22T16:11:12.407Z,3.73
2018-02-22T16:13:41.662Z,4.43
2018-02-22T16:16:10.030Z,4.47
2018-02-22T16:18:38.378Z,7.50
2018-02-22T16:21:07.070Z,3.60
2018-02-22T16:23:35.434Z,4.33
2018-02-22T16:26:04.676Z,3.63
2018-02-22T16:28:33.012Z,3.83
2018-02-22T16:31:01.326Z,3.50
2018-02-22T16:33:29.656Z,4.57
2018-02-22T16:35:58.059Z,5.43
2018-02-22T16:38:26.371Z,4.17
2018-02-22T16:40:54.706Z,5.43
2018-02-22T16:43:23.040Z,4.87
2018-02-22T16:45:51.468Z,5.13
2018-02-22T16:48:19.788Z,3.37
2018-02-22T16:50:48.131Z,4.00
2018-02-22T16:53:16.447Z,4.50
2018-02-22T16:55:44.794Z,3.73
2018-02-22T16:58:13.105Z,4.00
2018-02-22T17:00:41.486Z,4.67
2018-02-22T17:03:09.774Z,5.03
2018-02-22T17:05:38.414Z,4.30
2018-02-22T17:08:06.763Z,5.67
2018-02-22T17:10:35.159Z,4.57
2018-02-22T17:13:03.466Z,3.83
2018-02-22T17:15:32.242Z,4.63
2018-02-22T17:18:02.021Z,7.43
2018-02-22T17:20:32.316Z,21.97
2018-02-22T17:23:01.067Z,6.73
2018-02-22T17:25:29.478Z,5.83
2018-02-22T17:28:04.234Z,17.30
2018-02-22T17:30:42.083Z,8.57
2018-02-22T17:33:11.197Z,8.13
2018-02-22T17:35:42.889Z,12.73
2018-02-22T17:41:39.130Z,25.90
2018-02-22T17:44:07.689Z,11.87
2018-02-22T17:46:37.210Z,9.33
2018-02-22T17:49:07.447Z,8.13
2018-02-22T17:51:37.883Z,9.10
2018-02-22T17:54:07.614Z,8.60
2018-02-22T17:56:40.815Z,6.60
2018-02-22T17:59:11.570Z,6.17
2018-02-22T18:01:44.993Z,8.17
2018-02-22T18:04:14.578Z,7.33
2018-02-22T18:06:43.072Z,5.23
2018-02-22T18:09:15.908Z,5.03
2018-02-22T18:11:45.149Z,6.93
2018-02-22T18:14:14.322Z,8.20
2018-02-22T18:17:00.966Z,8.60
2018-02-22T18:19:33.247Z,6.97
2018-02-22T18:22:02.235Z,5.63
2018-02-22T18:24:32.106Z,16.23
2018-02-22T18:27:01.981Z,4.73
2018-02-22T18:29:30.971Z,4.93
2018-02-22T18:31:59.310Z,4.10
2018-02-22T18:34:27.680Z,4.00
2018-02-22T18:36:56.303Z,4.23
2018-02-22T18:39:28.048Z,7.50
2018-02-22T18:45:10.439Z,5.03
2018-02-22T18:47:38.800Z,3.80
2018-02-22T18:50:08.481Z,4.47
2018-02-22T18:52:36.798Z,4.73
2018-02-22T18:55:05.155Z,5.70
2018-02-22T18:57:33.473Z,3.73
2018-02-22T19:00:01.887Z,3.70
2018-02-22T19:02:30.242Z,4.50
2018-02-22T19:04:58.586Z,6.53
2018-02-22T19:07:26.926Z,5.33
2018-02-22T19:09:55.321Z,4.80
2018-02-22T19:12:23.691Z,4.93
2018-02-22T19:14:51.999Z,3.50
2018-02-22T19:17:20.343Z,3.67
2018-02-22T19:19:48.682Z,4.43
2018-02-22T19:22:17.035Z,6.10
2018-02-22T19:24:45.881Z,4.37
2018-02-22T19:27:14.232Z,5.37
2018-02-22T19:29:42.557Z,3.43
2018-02-22T19:32:10.916Z,4.83
2018-02-22T19:34:39.242Z,6.27
2018-02-22T19:37:07.661Z,4.97
2018-02-22T19:39:37.118Z,3.57
2018-02-22T19:42:05.463Z,5.30
2018-02-22T19:44:33.815Z,5.03
2018-02-22T19:47:02.152Z,3.70
2018-02-22T19:49:31.205Z,4.53
2018-02-22T19:51:59.928Z,7.80
2018-02-22T19:54:29.674Z,4.43
2018-02-22T19:56:59.717Z,6.23
2018-02-22T19:59:30.031Z,4.90
2018-02-22T20:01:59.485Z,4.60
2018-02-22T20:04:28.143Z,4.13
2018-02-22T20:06:58.568Z,5.77
2018-02-22T20:09:26.975Z,9.67
2018-02-22T20:11:57.518Z,5.70
2018-02-22T20:14:27.261Z,5.00
2018-02-22T20:16:56.470Z,4.40
2018-02-22T20:19:25.908Z,5.07
2018-02-22T20:21:55.708Z,5.90
2018-02-22T20:24:24.905Z,5.90
2018-02-22T20:26:54.917Z,5.63
2018-02-22T20:29:23.330Z,4.33
2018-02-22T20:31:53.919Z,5.43
2018-02-22T20:34:23.480Z,5.97
2018-02-22T20:36:52.281Z,4.83
2018-02-22T20:39:20.764Z,5.10
2018-02-22T20:41:50.414Z,4.03
2018-02-22T20:44:18.819Z,4.80
2018-02-22T20:46:48.369Z,6.83
2018-02-22T20:49:17.261Z,3.60
2018-02-22T20:51:52.826Z,3.80
2018-02-22T20:54:22.362Z,4.57
2018-02-22T20:56:50.754Z,5.03
2018-02-22T20:59:20.768Z,6.80
2018-02-22T21:01:49.985Z,12.30
2018-02-22T21:04:19.576Z,3.90
2018-02-22T21:06:48.710Z,4.27
2018-02-22T21:09:17.053Z,5.20
2018-02-22T21:11:45.788Z,5.27
2018-02-22T21:14:14.156Z,5.90
2018-02-22T21:16:43.938Z,4.93
2018-02-22T21:19:25.436Z,4.00
2018-02-22T23:02:19.688Z,4.37
2018-02-22T23:04:48.044Z,5.47
2018-02-22T23:07:17.755Z,4.50
2018-02-22T23:09:46.715Z,4.33
2018-02-22T23:12:16.598Z,4.23
2018-02-22T23:14:46.701Z,4.10
2018-02-22T23:17:15.062Z,4.43
2018-02-22T23:19:44.292Z,4.53
2018-02-22T23:22:13.569Z,4.77
2018-02-22T23:24:43.098Z,4.13
2018-02-22T23:27:12.286Z,3.83
2018-02-22T23:29:40.668Z,4.97
2018-02-22T23:32:10.939Z,4.03
2018-02-22T23:34:39.732Z,4.53
2018-02-22T23:37:09.675Z,4.00
2018-02-22T23:39:40.239Z,4.73
2018-02-22T23:42:15.126Z,4.13
2018-02-22T23:44:44.497Z,3.70
2018-02-22T23:47:13.055Z,4.10
2018-02-22T23:49:41.407Z,3.70
2018-02-22T23:52:12.595Z,4.70
2018-02-22T23:54:41.085Z,3.93
2018-02-22T23:57:10.341Z,4.23
2018-02-22T23:59:39.496Z,4.30
